createdAt,value
2023-03-12T00:01:28.134Z,2.68
2023-03-12T00:06:28.145Z,2.69
2023-03-12T00:11:28.144Z,2.72
2023-03-12T00:16:28.194Z,2.74
2023-03-12T00:21:28.146Z,2.7
2023-03-12T00:26:28.135Z,2.67
2023-03-12T00:31:28.145Z,2.67
2023-03-12T00:36:28.135Z,2.75
2023-03-12T00:41:28.145Z,2.73
2023-03-12T00:46:28.145Z,2.73
2023-03-12T00:51:28.136Z,2.66
2023-03-12T00:56:28.146Z,2.59
2023-03-12T01:01:28.136Z,2.48
2023-03-12T01:06:28.147Z,2.42
2023-03-12T01:11:28.146Z,2.48
2023-03-12T01:16:28.147Z,2.52
2023-03-12T01:21:28.147Z,2.51
2023-03-12T01:26:28.136Z,2.48
2023-03-12T01:31:28.147Z,2.39
2023-03-12T01:36:28.136Z,2.36
2023-03-12T01:41:28.148Z,2.35
2023-03-12T01:46:28.147Z,2.33
2023-03-12T01:51:37.396Z,2.26
2023-03-12T01:56:28.147Z,2.24
2023-03-12T02:01:28.137Z,2.22
2023-03-12T02:06:28.147Z,2.23
2023-03-12T02:11:28.147Z,2.39
2023-03-12T02:16:28.148Z,2.6
2023-03-12T02:21:28.147Z,2.75
2023-03-12T02:26:28.137Z,2.87
2023-03-12T02:31:28.212Z,2.95
2023-03-12T02:36:28.138Z,3.03
2023-03-12T02:41:28.156Z,3.13
2023-03-12T02:46:28.149Z,3.06
2023-03-12T02:51:28.149Z,3.1
2023-03-12T02:56:28.149Z,3.12
2023-03-12T03:01:28.138Z,2.94
2023-03-12T03:06:28.149Z,2.88
2023-03-12T03:11:28.138Z,2.93
2023-03-12T03:16:28.149Z,2.97
2023-03-12T03:21:28.149Z,2.98
2023-03-12T03:26:28.139Z,3.04
2023-03-12T03:31:28.150Z,3.07
2023-03-12T03:36:28.139Z,3.09
2023-03-12T03:41:28.150Z,3.11
2023-03-12T03:46:28.149Z,3.13
2023-03-12T03:51:28.151Z,3.03
2023-03-12T03:56:28.150Z,2.9
2023-03-12T04:01:28.140Z,2.74
2023-03-12T04:06:28.150Z,2.82
2023-03-12T04:11:28.140Z,3.1
2023-03-12T04:16:28.150Z,3.2
2023-03-12T04:21:28.150Z,3.16
2023-03-12T04:26:28.140Z,3.25
2023-03-12T04:31:28.150Z,3.12
2023-03-12T04:36:28.140Z,3.08
2023-03-12T04:41:28.151Z,3.11
2023-03-12T04:46:28.141Z,3.13
2023-03-12T04:51:28.152Z,3.11
2023-03-12T04:56:28.152Z,3.26
2023-03-12T05:01:28.141Z,3.42
2023-03-12T05:06:28.218Z,3.35
2023-03-12T05:11:28.141Z,3.58
2023-03-12T05:16:28.160Z,3.62
2023-03-12T05:21:28.153Z,3.83
2023-03-12T05:26:28.153Z,3.96
2023-03-12T05:31:28.153Z,3.85
2023-03-12T05:36:28.142Z,4.01
2023-03-12T05:41:28.153Z,4.12
2023-03-12T05:46:28.143Z,4.11
2023-03-12T05:51:28.153Z,4.25
2023-03-12T06:01:28.143Z,4.71
2023-03-12T06:06:28.154Z,4.85
2023-03-12T06:11:28.144Z,5.02
2023-03-12T06:16:28.154Z,5.12
2023-03-12T06:21:28.155Z,5.3
2023-03-12T06:26:28.156Z,5.34
2023-03-12T06:31:28.156Z,5.18
2023-03-12T06:36:28.145Z,5.14
2023-03-12T06:41:28.156Z,5.2
2023-03-12T06:46:28.146Z,5.55
2023-03-12T06:51:28.156Z,5.43
2023-03-12T06:56:28.157Z,5.57
2023-03-12T07:01:28.147Z,5.76
2023-03-12T07:06:28.158Z,5.96
2023-03-12T07:11:28.157Z,6.16
2023-03-12T07:16:28.158Z,6.41
2023-03-12T07:21:28.148Z,6.57
2023-03-12T07:26:28.160Z,6.74
2023-03-12T07:31:28.159Z,6.89
2023-03-12T07:36:28.150Z,6.97
2023-03-12T07:41:28.160Z,7.13
2023-03-12T07:46:28.150Z,7.32
2023-03-12T07:51:28.161Z,7.42
2023-03-12T07:56:28.162Z,7.8
2023-03-12T08:01:28.163Z,8.12
2023-03-12T08:06:28.162Z,7.79
2023-03-12T08:11:28.153Z,7.81
2023-03-12T08:16:28.164Z,8.25
2023-03-12T08:21:28.154Z,8.78
2023-03-12T08:26:28.166Z,9.37
2023-03-12T08:31:28.165Z,10.02
2023-03-12T08:36:28.156Z,10.18
2023-03-12T08:41:28.168Z,9.93
2023-03-12T08:46:28.158Z,10.59
2023-03-12T08:51:28.169Z,12.58
2023-03-12T08:56:28.170Z,12.36
2023-03-12T09:01:28.172Z,11.47
2023-03-12T09:06:28.172Z,10.91
2023-03-12T09:11:28.162Z,10.75
2023-03-12T09:16:28.174Z,10.83
2023-03-12T09:21:28.164Z,10.71
2023-03-12T09:26:28.182Z,10.78
2023-03-12T09:31:37.437Z,10.56
2023-03-12T09:36:28.166Z,10.87
2023-03-12T09:41:28.178Z,11.24
2023-03-12T09:46:28.168Z,11.04
2023-03-12T09:51:28.180Z,11.27
2023-03-12T09:56:28.181Z,11.39
2023-03-12T10:01:28.183Z,11.28
2023-03-12T10:06:28.184Z,11.6
2023-03-12T10:11:28.173Z,11.64
2023-03-12T10:16:28.186Z,12.33
2023-03-12T10:21:28.176Z,12.08
2023-03-12T10:26:28.187Z,11.6
2023-03-12T10:31:28.188Z,11.22
2023-03-12T10:36:28.189Z,11.04
2023-03-12T10:41:28.191Z,10.84
2023-03-12T10:46:28.181Z,10.97
2023-03-12T10:51:28.192Z,11.11
2023-03-12T10:56:28.182Z,11.38
2023-03-12T11:01:28.195Z,11.4
2023-03-12T11:06:28.194Z,11.52
2023-03-12T11:11:28.185Z,11.5
2023-03-12T11:16:28.197Z,11.62
2023-03-12T11:21:28.187Z,11.77
2023-03-12T11:26:28.198Z,12.22
2023-03-12T11:31:28.200Z,12.5
2023-03-12T11:36:28.201Z,12.3
2023-03-12T11:41:28.265Z,12.5
2023-03-12T11:46:28.192Z,12.71
2023-03-12T11:51:28.246Z,12.62
2023-03-12T11:56:28.194Z,12.56
2023-03-12T12:01:28.206Z,12.06
2023-03-12T12:06:28.206Z,11.95
2023-03-12T12:11:28.209Z,11.84
2023-03-12T12:16:28.209Z,11.68
2023-03-12T12:21:28.200Z,11.95
2023-03-12T12:26:28.212Z,12.33
2023-03-12T12:31:28.201Z,12.93
2023-03-12T12:36:28.213Z,13.21
2023-03-12T12:41:28.214Z,13.11
2023-03-12T12:46:28.205Z,13.38
2023-03-12T12:51:28.216Z,13.59
2023-03-12T12:56:28.207Z,13.87
2023-03-12T13:01:28.219Z,14.32
2023-03-12T13:06:28.219Z,14.05
2023-03-12T13:11:28.222Z,13.8
2023-03-12T13:16:28.222Z,13.82
2023-03-12T13:21:28.213Z,14.18
2023-03-12T13:26:28.224Z,14.05
2023-03-12T13:31:28.215Z,14.02
2023-03-12T13:36:28.228Z,14.14
2023-03-12T13:41:28.228Z,14.84
2023-03-12T13:46:28.218Z,15.75
2023-03-12T13:51:28.232Z,17.29
2023-03-12T13:56:28.222Z,16.91
2023-03-12T14:01:28.234Z,17.39
2023-03-12T14:06:28.235Z,18.69
2023-03-12T14:11:28.238Z,17.27
2023-03-12T14:16:28.238Z,16.54
2023-03-12T14:21:28.230Z,16.65
2023-03-12T14:26:28.293Z,16.36
2023-03-12T14:31:28.233Z,16.23
2023-03-12T14:36:28.244Z,16.81
2023-03-12T14:41:28.246Z,18.79
2023-03-12T14:46:28.248Z,18.01
2023-03-12T14:51:28.249Z,16.79
2023-03-12T14:56:28.241Z,16.58
2023-03-12T15:01:28.253Z,15.91
2023-03-12T15:06:28.242Z,15.93
2023-03-12T15:11:28.256Z,15.82
2023-03-12T15:16:28.257Z,15.73
2023-03-12T15:21:28.248Z,15.45
2023-03-12T15:26:28.259Z,15.44
2023-03-12T15:31:28.251Z,14.67
2023-03-12T15:36:28.263Z,14.57
2023-03-12T15:41:28.263Z,14.47
2023-03-12T15:46:28.265Z,14.21
2023-03-12T15:51:28.266Z,13.96
2023-03-12T15:56:28.257Z,14.03
2023-03-12T16:01:28.269Z,13.84
2023-03-12T16:06:28.260Z,14.03
2023-03-12T16:11:28.272Z,14.12
2023-03-12T16:16:28.274Z,14.18
2023-03-12T16:21:28.264Z,14.15
2023-03-12T16:26:28.275Z,14.07
2023-03-12T16:31:28.266Z,13.77
2023-03-12T16:36:28.278Z,13.74
2023-03-12T16:41:28.269Z,13.76
2023-03-12T16:46:28.281Z,13.75
2023-03-12T16:51:28.282Z,13.76
2023-03-12T16:56:28.272Z,13.69
2023-03-12T17:06:28.275Z,13.67
2023-03-12T17:11:37.547Z,13.7
2023-03-12T17:16:28.288Z,13.64
2023-03-12T17:21:28.337Z,13.65
2023-03-12T17:26:28.291Z,13.64
2023-03-12T17:31:28.281Z,13.72
2023-03-12T17:36:28.293Z,13.58
2023-03-12T17:41:28.284Z,13.44
2023-03-12T17:46:28.295Z,13.41
2023-03-12T17:51:28.297Z,13.52
2023-03-12T17:56:28.287Z,13.52
2023-03-12T18:01:28.299Z,13.49
2023-03-12T18:06:28.290Z,13.51
2023-03-12T18:11:28.302Z,13.41
2023-03-12T18:16:28.303Z,13.37
2023-03-12T18:21:28.305Z,13.3
2023-03-12T18:26:28.306Z,13.12
2023-03-12T18:31:28.296Z,12.83
2023-03-12T18:36:28.307Z,12.66
2023-03-12T18:41:28.299Z,12.57
2023-03-12T18:46:28.310Z,12.45
2023-03-12T18:51:28.311Z,12.36
2023-03-12T18:56:28.302Z,12.46
2023-03-12T19:01:28.314Z,12.53
2023-03-12T19:06:28.304Z,12.57
2023-03-12T19:11:28.315Z,12.62
2023-03-12T19:16:28.318Z,12.68
2023-03-12T19:21:28.319Z,12.68
2023-03-12T19:26:28.320Z,12.77
2023-03-12T19:31:28.310Z,12.92
2023-03-12T19:36:28.371Z,13.1
2023-03-12T19:41:28.312Z,13.23
2023-03-12T19:46:28.323Z,13.36
2023-03-12T19:51:28.325Z,13.46
2023-03-12T19:56:28.374Z,13.51
2023-03-12T20:01:28.328Z,13.54
2023-03-12T20:06:28.318Z,13.62
2023-03-12T20:11:28.329Z,13.64
2023-03-12T20:16:28.320Z,13.67
2023-03-12T20:21:28.333Z,13.7
2023-03-12T20:26:28.334Z,13.68
2023-03-12T20:31:28.324Z,13.68
2023-03-12T20:36:28.336Z,13.7
2023-03-12T20:41:28.326Z,13.71
2023-03-12T20:46:28.338Z,13.66
2023-03-12T20:51:28.339Z,13.73
2023-03-12T20:56:28.341Z,13.71
2023-03-12T21:01:28.342Z,13.69
2023-03-12T21:06:28.332Z,13.69
2023-03-12T21:11:28.344Z,13.71
2023-03-12T21:16:28.335Z,13.72
2023-03-12T21:21:28.347Z,13.71
2023-03-12T21:26:28.347Z,13.71
2023-03-12T21:31:28.338Z,13.74
2023-03-12T21:36:28.349Z,13.75
2023-03-12T21:41:28.341Z,13.73
2023-03-12T21:46:28.352Z,13.7
2023-03-12T21:51:28.342Z,13.7
2023-03-12T21:56:28.354Z,13.68
2023-03-12T22:01:28.356Z,13.65
2023-03-12T22:06:28.347Z,13.64
2023-03-12T22:11:28.384Z,13.69
2023-03-12T22:16:28.349Z,13.71
2023-03-12T22:21:28.361Z,13.67
2023-03-12T22:26:28.361Z,13.64
2023-03-12T22:31:28.364Z,13.6
2023-03-12T22:36:28.364Z,13.54
2023-03-12T22:41:28.355Z,13.5
2023-03-12T22:46:28.366Z,13.46
2023-03-12T22:51:28.356Z,13.41
2023-03-12T22:56:28.370Z,13.32
2023-03-12T23:01:28.370Z,13.29
2023-03-12T23:06:28.361Z,13.21
2023-03-12T23:11:28.372Z,13.16
2023-03-12T23:16:28.363Z,13.16
2023-03-12T23:21:28.374Z,13.09
2023-03-12T23:26:28.375Z,13.04
2023-03-12T23:31:28.378Z,13
2023-03-12T23:36:28.379Z,12.94
2023-03-12T23:41:28.368Z,12.96
2023-03-12T23:46:28.381Z,12.99
2023-03-12T23:51:28.371Z,13.06
2023-03-12T23:56:28.383Z,13.08
